createdAt,value
2017-10-07T00:00:07.605Z,15.82
2017-10-07T00:01:10.079Z,14.05
2017-10-07T00:02:12.557Z,21.50
2017-10-07T00:03:15.059Z,14.73
2017-10-07T00:04:17.592Z,15.48
2017-10-07T00:05:20.079Z,15.70
2017-10-07T00:06:22.810Z,19.77
2017-10-07T00:07:25.295Z,18.92
2017-10-07T00:08:27.786Z,11.93
2017-10-07T00:09:31.043Z,14.75
2017-10-07T00:10:33.511Z,26.98
2017-10-07T00:11:36.024Z,19.52
2017-10-07T00:12:38.542Z,24.15
2017-10-07T00:13:41.033Z,16.98
2017-10-07T00:14:43.495Z,18.17
2017-10-07T00:15:45.982Z,14.10
2017-10-07T00:16:49.239Z,16.35
2017-10-07T00:17:51.719Z,25.23
2017-10-07T00:18:54.180Z,17.17
2017-10-07T00:19:56.631Z,18.37
2017-10-07T00:20:59.120Z,14.75
2017-10-07T00:22:02.521Z,19.23
2017-10-07T00:23:05.002Z,17.27
2017-10-07T00:24:07.482Z,24.42
2017-10-07T00:25:09.982Z,15.18
2017-10-07T00:26:12.438Z,15.30
2017-10-07T00:27:14.952Z,20.48
2017-10-07T00:28:17.442Z,17.25
2017-10-07T00:29:19.942Z,24.50
2017-10-07T00:30:23.207Z,17.20
2017-10-07T00:31:26.176Z,27.33
2017-10-07T00:32:28.708Z,17.60
2017-10-07T00:33:31.300Z,15.77
2017-10-07T00:34:33.787Z,21.20
2017-10-07T00:35:37.019Z,15.75
2017-10-07T00:36:39.482Z,16.80
2017-10-07T00:37:41.999Z,27.33
2017-10-07T00:38:44.516Z,16.05
2017-10-07T00:39:47.789Z,27.50
2017-10-07T00:40:50.337Z,19.55
2017-10-07T00:41:52.808Z,21.35
2017-10-07T00:42:56.039Z,23.00
2017-10-07T00:43:59.296Z,11.00
2017-10-07T00:45:02.545Z,23.17
2017-10-07T00:46:04.998Z,16.92
2017-10-07T00:47:07.483Z,23.15
2017-10-07T00:48:10.746Z,22.67
2017-10-07T00:49:13.232Z,17.85
2017-10-07T00:50:15.719Z,18.80
2017-10-07T00:51:18.187Z,18.95
2017-10-07T00:52:21.415Z,21.48
2017-10-07T00:53:23.909Z,13.70
2017-10-07T00:54:26.404Z,16.73
2017-10-07T00:55:28.939Z,18.05
2017-10-07T00:56:31.474Z,20.55
2017-10-07T00:57:33.942Z,17.92
2017-10-07T00:58:36.424Z,25.35
2017-10-07T00:59:38.950Z,27.15
2017-10-07T01:00:41.422Z,20.48
2017-10-07T01:01:43.982Z,24.05
2017-10-07T01:02:46.442Z,25.40
2017-10-07T01:03:48.930Z,26.52
2017-10-07T01:04:51.483Z,17.98
2017-10-07T01:05:53.959Z,17.85
2017-10-07T01:06:57.186Z,23.27
2017-10-07T01:07:59.659Z,13.13
2017-10-07T01:09:02.116Z,23.12
2017-10-07T01:10:04.651Z,25.05
2017-10-07T01:11:07.111Z,22.55
2017-10-07T01:12:10.414Z,18.83
2017-10-07T01:13:12.922Z,29.98
2017-10-07T01:14:15.386Z,19.90
2017-10-07T01:15:17.854Z,24.00
2017-10-07T01:16:20.349Z,29.42
2017-10-07T01:17:23.564Z,26.33
2017-10-07T01:18:26.067Z,25.88
2017-10-07T01:19:28.595Z,27.60
2017-10-07T01:20:31.051Z,22.98
2017-10-07T01:21:33.534Z,28.60
2017-10-07T01:22:36.003Z,17.60
2017-10-07T01:23:38.463Z,20.02
2017-10-07T01:24:40.939Z,16.90
2017-10-07T01:25:43.439Z,19.62
2017-10-07T01:26:45.909Z,29.85
2017-10-07T01:27:48.354Z,18.02
2017-10-07T01:28:50.918Z,31.70
2017-10-07T01:29:53.372Z,14.18
2017-10-07T01:30:56.611Z,11.90
2017-10-07T01:31:59.090Z,21.10
2017-10-07T01:33:01.585Z,23.30
2017-10-07T01:34:04.036Z,16.80
2017-10-07T01:35:06.615Z,15.32
2017-10-07T01:36:09.084Z,23.98
2017-10-07T01:37:11.577Z,19.85
2017-10-07T01:38:14.843Z,12.23
2017-10-07T01:39:18.067Z,16.48
2017-10-07T01:40:21.347Z,15.38
2017-10-07T01:41:23.818Z,17.37
2017-10-07T01:42:26.322Z,22.50
2017-10-07T01:43:28.794Z,20.40
2017-10-07T01:44:31.280Z,14.32
2017-10-07T01:45:33.780Z,24.00
2017-10-07T01:46:36.296Z,17.92
2017-10-07T01:47:38.807Z,13.85
2017-10-07T01:48:41.271Z,18.73
2017-10-07T01:49:43.754Z,19.50
2017-10-07T01:50:46.216Z,20.42
2017-10-07T01:51:48.714Z,23.77
2017-10-07T01:52:51.235Z,17.55
2017-10-07T01:53:53.706Z,25.23
2017-10-07T01:54:56.163Z,20.55
2017-10-07T01:55:59.407Z,22.42
2017-10-07T01:57:02.629Z,21.95
2017-10-07T01:58:05.117Z,18.90
2017-10-07T01:59:07.573Z,27.30
2017-10-07T02:00:10.174Z,16.83
2017-10-07T02:01:12.662Z,25.48
2017-10-07T02:02:15.960Z,19.25
2017-10-07T02:03:18.419Z,22.77
2017-10-07T02:04:21.654Z,30.88
2017-10-07T02:05:24.882Z,22.13
2017-10-07T02:06:27.371Z,15.27
2017-10-07T02:07:29.903Z,19.98
2017-10-07T02:08:32.376Z,31.98
2017-10-07T02:09:35.614Z,23.12
2017-10-07T02:10:38.835Z,15.43
2017-10-07T02:11:41.404Z,17.75
2017-10-07T02:12:43.890Z,18.77
2017-10-07T02:13:46.353Z,23.55
2017-10-07T02:14:48.830Z,20.65
2017-10-07T02:15:51.287Z,29.35
2017-10-07T02:16:54.538Z,23.67
2017-10-07T02:17:57.762Z,17.45
2017-10-07T02:19:00.277Z,17.02
2017-10-07T02:20:02.745Z,20.70
2017-10-07T02:21:05.236Z,27.95
2017-10-07T02:22:08.474Z,31.42
2017-10-07T02:23:10.936Z,21.08
2017-10-07T02:24:13.454Z,19.70
2017-10-07T02:25:16.675Z,25.75
2017-10-07T02:26:19.146Z,25.42
2017-10-07T02:27:21.607Z,19.83
2017-10-07T02:28:24.093Z,22.92
2017-10-07T02:29:26.590Z,19.27
2017-10-07T02:30:29.880Z,20.10
2017-10-07T02:31:32.371Z,22.67
2017-10-07T02:32:35.718Z,24.17
2017-10-07T02:33:38.196Z,26.62
2017-10-07T02:34:40.874Z,33.33
2017-10-07T02:35:43.372Z,17.75
2017-10-07T02:36:46.631Z,17.45
2017-10-07T02:37:49.100Z,16.25
2017-10-07T02:38:51.554Z,25.17
2017-10-07T02:39:54.825Z,24.67
2017-10-07T02:40:57.336Z,20.80
2017-10-07T02:42:00.581Z,18.95
2017-10-07T02:43:03.813Z,23.75
2017-10-07T02:44:07.027Z,23.45
2017-10-07T02:45:09.512Z,19.90
2017-10-07T02:46:12.007Z,28.85
2017-10-07T02:47:16.151Z,25.30
2017-10-07T02:48:18.610Z,16.17
2017-10-07T02:49:21.088Z,18.73
2017-10-07T02:50:23.552Z,19.95
2017-10-07T02:51:26.838Z,17.83
2017-10-07T02:52:29.299Z,26.35
2017-10-07T02:53:31.758Z,22.37
2017-10-07T02:54:34.228Z,23.70
2017-10-07T02:55:36.697Z,25.70
2017-10-07T02:56:39.968Z,23.12
2017-10-07T02:57:42.450Z,25.25
2017-10-07T02:58:45.766Z,16.73
2017-10-07T02:59:48.218Z,13.57
2017-10-07T03:00:51.471Z,26.42
2017-10-07T03:01:54.734Z,20.83
2017-10-07T03:02:57.263Z,34.15
2017-10-07T03:03:59.754Z,17.70
2017-10-07T03:05:03.015Z,20.17
2017-10-07T03:06:06.257Z,22.73
2017-10-07T03:07:08.772Z,29.23
2017-10-07T03:08:12.007Z,25.70
2017-10-07T03:09:14.467Z,23.83
2017-10-07T03:10:16.946Z,23.23
2017-10-07T03:11:19.408Z,23.35
2017-10-07T03:12:21.970Z,21.05
2017-10-07T03:13:24.435Z,31.83
2017-10-07T03:14:27.670Z,19.45
2017-10-07T03:15:30.963Z,25.02
2017-10-07T03:16:33.454Z,27.48
2017-10-07T03:17:36.685Z,21.12
2017-10-07T03:18:39.151Z,26.25
2017-10-07T03:19:41.621Z,22.17
2017-10-07T03:20:44.103Z,28.85
2017-10-07T03:21:46.570Z,18.92
2017-10-07T03:22:49.043Z,26.37
2017-10-07T03:23:51.508Z,25.48
2017-10-07T03:24:53.984Z,21.65
2017-10-07T03:25:56.484Z,18.75
2017-10-07T03:26:59.742Z,22.10
2017-10-07T03:28:02.204Z,21.55
2017-10-07T03:29:04.671Z,24.95
2017-10-07T03:30:07.158Z,25.55
2017-10-07T03:31:09.681Z,23.65
2017-10-07T03:32:12.139Z,17.55
2017-10-07T03:33:14.619Z,18.90
2017-10-07T03:34:17.095Z,22.40
2017-10-07T03:35:20.337Z,21.02
2017-10-07T03:36:22.828Z,21.20
2017-10-07T03:37:25.305Z,26.95
2017-10-07T03:38:28.550Z,23.25
2017-10-07T03:39:31.781Z,28.67
2017-10-07T03:40:35.052Z,26.98
2017-10-07T03:41:37.525Z,23.50
2017-10-07T03:42:40.005Z,27.55
2017-10-07T03:43:42.464Z,17.62
2017-10-07T03:44:44.947Z,15.55
2017-10-07T03:45:47.416Z,17.62
2017-10-07T03:46:49.908Z,22.13
2017-10-07T03:47:52.759Z,19.85
2017-10-07T03:48:55.274Z,20.62
2017-10-07T03:49:57.726Z,20.52
2017-10-07T03:51:00.198Z,24.73
2017-10-07T03:52:02.682Z,30.95
2017-10-07T03:53:05.151Z,23.35
2017-10-07T03:54:07.646Z,21.35
2017-10-07T03:55:10.879Z,18.55
2017-10-07T03:56:13.330Z,18.45
2017-10-07T03:57:16.593Z,21.17
2017-10-07T03:58:19.065Z,24.58
2017-10-07T03:59:21.549Z,18.90
2017-10-07T04:00:24.015Z,25.50
2017-10-07T04:01:28.014Z,19.37
2017-10-07T04:02:31.246Z,20.05
2017-10-07T04:03:34.477Z,27.55
2017-10-07T04:04:37.702Z,17.55
2017-10-07T04:05:40.170Z,23.95
2017-10-07T04:06:42.680Z,24.05
2017-10-07T04:07:45.944Z,23.25
2017-10-07T04:08:48.417Z,27.77
2017-10-07T04:09:50.886Z,19.73
2017-10-07T04:10:53.342Z,22.98
2017-10-07T04:11:55.846Z,21.77
2017-10-07T04:12:58.362Z,19.17
2017-10-07T04:14:00.818Z,26.62
2017-10-07T04:15:03.318Z,17.00
2017-10-07T04:16:05.786Z,24.70
2017-10-07T04:17:08.258Z,31.33
2017-10-07T04:18:10.729Z,28.10
2017-10-07T04:19:13.305Z,22.92
2017-10-07T04:20:15.763Z,19.92
2017-10-07T04:21:18.284Z,27.50
2017-10-07T04:22:20.755Z,20.25
2017-10-07T04:23:23.242Z,19.12
2017-10-07T04:24:25.759Z,25.50
2017-10-07T04:25:28.239Z,15.48
2017-10-07T04:26:31.489Z,23.60
2017-10-07T04:27:34.738Z,24.48
2017-10-07T04:28:37.213Z,20.17
2017-10-07T04:29:39.700Z,22.62
2017-10-07T04:30:42.154Z,19.70
2017-10-07T04:31:44.624Z,22.87
2017-10-07T04:32:47.887Z,17.02
2017-10-07T04:33:50.405Z,18.25
2017-10-07T04:34:53.624Z,12.85
2017-10-07T04:35:56.191Z,20.05
2017-10-07T04:36:58.755Z,20.40
2017-10-07T04:38:01.331Z,18.85
2017-10-07T04:39:03.795Z,23.40
2017-10-07T04:40:06.259Z,16.80
2017-10-07T04:41:09.527Z,17.80
2017-10-07T04:42:12.775Z,21.52
2017-10-07T04:43:15.259Z,20.73
2017-10-07T04:44:17.749Z,25.27
2017-10-07T04:45:20.234Z,9.10
2017-10-07T04:46:23.468Z,10.05
2017-10-07T04:47:26.695Z,17.70
2017-10-07T04:48:29.967Z,12.70
2017-10-07T04:49:32.523Z,12.35
2017-10-07T04:50:35.095Z,11.25
2017-10-07T04:51:37.534Z,12.80
2017-10-07T04:52:40.772Z,9.35
2017-10-07T04:53:43.995Z,12.18
2017-10-07T04:54:46.459Z,15.48
2017-10-07T04:55:48.955Z,18.65
2017-10-07T04:56:51.439Z,11.45
2017-10-07T04:57:53.936Z,10.80
2017-10-07T04:58:56.447Z,9.52
2017-10-07T04:59:59.683Z,11.77
2017-10-07T05:01:02.915Z,10.00
2017-10-07T05:02:06.164Z,14.30
2017-10-07T05:03:09.444Z,13.13
2017-10-07T05:04:11.968Z,8.55
2017-10-07T05:05:14.439Z,14.07
2017-10-07T05:06:16.914Z,12.95
2017-10-07T05:07:19.379Z,8.52
2017-10-07T05:08:21.852Z,13.20
2017-10-07T05:09:24.471Z,14.43
2017-10-07T05:10:27.699Z,11.15
2017-10-07T05:11:30.941Z,10.20
2017-10-07T05:12:33.424Z,11.07
2017-10-07T05:13:35.894Z,9.18
2017-10-07T05:14:39.127Z,10.45
2017-10-07T05:15:41.681Z,9.68
2017-10-07T05:16:44.134Z,13.62
2017-10-07T05:17:46.627Z,8.48
2017-10-07T05:18:49.192Z,12.95
2017-10-07T05:19:51.745Z,8.68
2017-10-07T05:20:54.313Z,7.55
2017-10-07T05:21:56.837Z,8.20
2017-10-07T05:22:59.309Z,12.27
2017-10-07T05:24:01.776Z,10.52
2017-10-07T05:25:05.036Z,6.95
2017-10-07T05:26:07.601Z,8.70
2017-10-07T05:27:10.075Z,14.55
2017-10-07T05:28:12.888Z,12.75
2017-10-07T05:29:16.174Z,15.55
2017-10-07T05:30:18.646Z,10.77
2017-10-07T05:31:22.611Z,23.33
2017-10-07T05:32:25.071Z,15.23
2017-10-07T05:33:27.634Z,14.75
2017-10-07T05:34:30.416Z,15.40
2017-10-07T05:35:33.651Z,15.90
2017-10-07T05:36:36.911Z,12.37
2017-10-07T05:37:39.396Z,15.05
2017-10-07T05:38:41.874Z,14.48
2017-10-07T05:39:44.398Z,13.77
2017-10-07T05:40:46.874Z,17.12
2017-10-07T05:41:49.338Z,16.52
2017-10-07T05:42:51.806Z,15.98
2017-10-07T05:43:54.290Z,15.10
2017-10-07T05:44:56.778Z,16.52
2017-10-07T05:46:00.024Z,14.00
2017-10-07T05:47:03.266Z,24.40
2017-10-07T05:48:06.550Z,26.33
2017-10-07T05:49:09.063Z,25.08
2017-10-07T05:50:11.581Z,20.40
2017-10-07T05:51:14.822Z,20.90
2017-10-07T05:52:18.091Z,17.20
2017-10-07T05:53:20.571Z,16.48
2017-10-07T05:54:23.813Z,24.67
2017-10-07T05:55:26.340Z,18.73
2017-10-07T05:56:28.823Z,21.58
2017-10-07T05:57:31.293Z,22.52
2017-10-07T05:58:34.524Z,20.42
2017-10-07T05:59:37.000Z,22.75
2017-10-07T06:00:39.501Z,18.52
2017-10-07T06:01:42.755Z,24.85
2017-10-07T06:02:45.219Z,17.62
2017-10-07T06:03:47.681Z,17.08
2017-10-07T06:04:51.012Z,20.17
2017-10-07T06:05:53.477Z,14.87
2017-10-07T06:06:55.970Z,18.05
2017-10-07T06:07:59.211Z,16.00
2017-10-07T06:09:02.484Z,23.12
2017-10-07T06:10:04.979Z,20.42
2017-10-07T06:11:08.204Z,21.90
2017-10-07T06:12:10.675Z,19.55
2017-10-07T06:13:13.144Z,16.85
2017-10-07T06:14:15.598Z,24.37
2017-10-07T06:15:18.860Z,25.92
2017-10-07T06:16:22.075Z,19.40
2017-10-07T06:17:24.535Z,21.12
2017-10-07T06:18:27.029Z,17.62
2017-10-07T06:19:29.522Z,14.98
2017-10-07T06:20:32.021Z,23.08
2017-10-07T06:21:34.507Z,26.42
2017-10-07T06:22:37.762Z,12.35
2017-10-07T06:23:40.994Z,14.52
2017-10-07T06:24:44.256Z,14.43
2017-10-07T06:25:46.734Z,14.00
2017-10-07T06:26:49.210Z,20.45
2017-10-07T06:27:51.707Z,21.80
2017-10-07T06:28:54.944Z,12.65
2017-10-07T06:29:57.414Z,16.62
2017-10-07T06:30:59.877Z,9.63
2017-10-07T06:32:02.352Z,12.50
2017-10-07T06:33:04.875Z,11.60
2017-10-07T06:34:07.381Z,11.60
2017-10-07T06:35:10.647Z,11.05
2017-10-07T06:36:13.147Z,10.32
2017-10-07T06:37:15.611Z,13.00
2017-10-07T06:38:18.091Z,12.68
2017-10-07T06:39:21.327Z,10.07
2017-10-07T06:42:06.299Z,6.90
2017-10-07T06:43:09.563Z,13.80
2017-10-07T06:44:12.087Z,10.05
2017-10-07T06:45:15.303Z,10.15
2017-10-07T06:46:18.561Z,7.07
2017-10-07T06:47:21.798Z,7.47
2017-10-07T06:48:25.148Z,6.28
2017-10-07T06:49:28.390Z,7.87
2017-10-07T06:50:31.614Z,8.65
2017-10-07T06:51:34.081Z,9.68
2017-10-07T06:52:36.543Z,8.65
2017-10-07T06:53:39.108Z,8.93
2017-10-07T06:54:42.622Z,9.63
2017-10-07T06:55:45.090Z,9.23
2017-10-07T06:56:48.335Z,10.55
2017-10-07T06:57:51.571Z,8.88
2017-10-07T06:58:54.138Z,9.68
2017-10-07T06:59:57.364Z,9.48
2017-10-07T07:00:59.839Z,14.02
2017-10-07T07:02:03.115Z,7.20
2017-10-07T07:03:05.587Z,7.72
2017-10-07T07:04:08.820Z,14.77
2017-10-07T07:05:11.724Z,13.10
2017-10-07T07:06:14.204Z,10.57
2017-10-07T07:07:16.672Z,7.78
2017-10-07T07:08:19.219Z,15.43
2017-10-07T07:09:21.704Z,9.07
2017-10-07T07:10:24.939Z,10.43
2017-10-07T07:11:28.167Z,11.63
2017-10-07T07:12:30.623Z,13.65
2017-10-07T07:13:33.147Z,15.90
2017-10-07T07:14:35.639Z,17.83
2017-10-07T07:15:38.207Z,13.07
2017-10-07T07:16:40.726Z,15.73
2017-10-07T07:17:43.212Z,12.10
2017-10-07T07:18:45.982Z,11.90
2017-10-07T07:19:49.255Z,18.98
2017-10-07T07:20:51.760Z,8.48
2017-10-07T07:21:54.216Z,13.88
2017-10-07T07:22:56.678Z,11.73
2017-10-07T07:23:59.139Z,9.23
2017-10-07T07:25:01.649Z,18.45
2017-10-07T07:26:04.103Z,17.70
2017-10-07T07:27:06.560Z,21.48
2017-10-07T07:28:09.075Z,18.33
2017-10-07T07:29:11.543Z,17.83
2017-10-07T07:30:14.100Z,10.85
2017-10-07T07:31:16.564Z,14.77
2017-10-07T07:32:19.032Z,15.35
2017-10-07T07:33:21.510Z,15.82
2017-10-07T07:34:23.986Z,9.75
2017-10-07T07:35:26.482Z,12.93
2017-10-07T07:36:29.715Z,19.48
2017-10-07T07:37:32.959Z,11.32
2017-10-07T07:38:35.425Z,9.90
2017-10-07T07:39:37.911Z,13.68
2017-10-07T07:40:41.204Z,16.20
2017-10-07T07:41:43.671Z,11.05
2017-10-07T07:42:46.139Z,15.05
2017-10-07T07:43:48.701Z,13.20
2017-10-07T07:44:51.294Z,10.43
2017-10-07T07:45:53.799Z,13.77
2017-10-07T07:46:57.041Z,10.32
2017-10-07T07:48:00.296Z,11.60
2017-10-07T07:49:02.766Z,11.90
2017-10-07T07:50:05.378Z,11.05
2017-10-07T07:51:07.868Z,18.15
2017-10-07T07:52:10.342Z,13.48
2017-10-07T07:53:12.927Z,13.23
2017-10-07T07:54:15.409Z,10.77
2017-10-07T07:55:17.881Z,9.43
2017-10-07T07:56:20.387Z,10.38
2017-10-07T07:57:23.633Z,11.60
2017-10-07T07:58:26.887Z,10.90
2017-10-07T07:59:29.453Z,11.70
2017-10-07T08:00:31.911Z,11.85
2017-10-07T08:01:35.194Z,9.88
2017-10-07T08:02:37.656Z,9.93
2017-10-07T08:03:40.126Z,12.55
2017-10-07T08:04:42.590Z,13.02
2017-10-07T08:05:45.055Z,9.25
2017-10-07T08:06:48.312Z,9.82
2017-10-07T08:07:50.792Z,7.90
2017-10-07T08:08:53.263Z,7.87
2017-10-07T08:09:55.757Z,5.95
2017-10-07T08:10:58.221Z,16.33
2017-10-07T08:12:00.733Z,11.15
2017-10-07T08:13:03.979Z,6.78
2017-10-07T08:14:06.463Z,10.00
2017-10-07T08:15:08.941Z,7.53
2017-10-07T08:16:11.413Z,4.78
2017-10-07T08:17:13.916Z,8.38
2017-10-07T08:18:16.391Z,6.95
2017-10-07T08:19:19.687Z,10.15
2017-10-07T08:20:22.147Z,7.95
2017-10-07T08:21:25.378Z,7.62
2017-10-07T08:22:27.917Z,7.87
2017-10-07T08:23:30.398Z,8.23
2017-10-07T08:24:32.863Z,7.90
2017-10-07T08:25:35.464Z,6.50
2017-10-07T08:26:38.096Z,9.63
2017-10-07T08:27:40.616Z,8.30
2017-10-07T08:28:43.796Z,5.72
2017-10-07T08:29:47.078Z,4.25
2017-10-07T08:30:49.556Z,6.60
2017-10-07T08:31:52.074Z,6.18
2017-10-07T08:32:54.604Z,5.93
2017-10-07T08:33:57.070Z,6.18
2017-10-07T08:34:59.540Z,8.15
2017-10-07T08:36:02.051Z,6.28
2017-10-07T08:37:04.533Z,6.95
2017-10-07T08:38:07.042Z,6.47
2017-10-07T08:39:10.280Z,5.78
2017-10-07T08:40:13.523Z,4.28
2017-10-07T08:41:15.983Z,10.65
2017-10-07T08:42:18.496Z,7.70
2017-10-07T08:43:21.003Z,8.13
2017-10-07T08:44:24.243Z,8.43
2017-10-07T08:45:27.686Z,12.63
2017-10-07T08:46:30.959Z,7.37
2017-10-07T08:47:33.431Z,8.45
2017-10-07T08:48:35.923Z,6.20
2017-10-07T08:49:38.405Z,7.75
2017-10-07T08:50:41.647Z,6.30
2017-10-07T08:51:44.883Z,3.70
2017-10-07T08:52:47.369Z,3.85
2017-10-07T08:53:49.914Z,11.20
2017-10-07T08:54:52.390Z,8.98
2017-10-07T08:55:54.939Z,8.70
2017-10-07T08:56:57.440Z,5.22
2017-10-07T08:57:59.943Z,4.95
2017-10-07T08:59:03.181Z,5.03
2017-10-07T09:00:06.412Z,10.48
2017-10-07T09:01:08.944Z,5.05
2017-10-07T09:02:11.425Z,6.40
2017-10-07T09:03:13.882Z,9.55
2017-10-07T09:04:16.342Z,6.97
2017-10-07T09:05:18.808Z,9.95
2017-10-07T09:06:21.319Z,7.07
2017-10-07T09:07:23.775Z,4.90
2017-10-07T09:08:26.275Z,6.50
2017-10-07T09:09:28.738Z,4.75
2017-10-07T09:10:31.203Z,7.05
2017-10-07T09:11:33.679Z,10.35
2017-10-07T09:12:36.140Z,5.93
2017-10-07T09:13:39.397Z,6.82
2017-10-07T09:14:41.880Z,5.07
2017-10-07T09:15:44.347Z,8.82
2017-10-07T09:16:46.810Z,9.75
2017-10-07T09:17:49.303Z,6.12
2017-10-07T09:18:51.849Z,7.95
2017-10-07T09:19:54.308Z,4.55
2017-10-07T09:20:56.781Z,5.12
2017-10-07T09:21:59.255Z,5.25
2017-10-07T09:23:01.715Z,8.32
2017-10-07T09:24:04.267Z,7.35
2017-10-07T09:25:06.724Z,4.75
2017-10-07T09:26:09.191Z,11.27
2017-10-07T09:27:11.705Z,5.30
2017-10-07T09:28:14.990Z,10.13
2017-10-07T09:29:17.455Z,5.53
2017-10-07T09:30:20.266Z,5.72
2017-10-07T09:31:22.728Z,5.82
2017-10-07T09:32:26.012Z,8.32
2017-10-07T09:33:28.537Z,4.53
2017-10-07T09:34:31.009Z,4.95
2017-10-07T09:35:34.232Z,3.58
2017-10-07T09:36:36.749Z,10.43
2017-10-07T09:37:39.226Z,7.55
2017-10-07T09:38:41.711Z,6.82
2017-10-07T09:39:44.189Z,9.57
2017-10-07T09:40:46.663Z,3.83
2017-10-07T09:41:49.124Z,3.28
2017-10-07T09:42:51.613Z,11.48
2017-10-07T09:43:54.062Z,5.53
2017-10-07T09:44:57.346Z,4.57
2017-10-07T09:45:59.843Z,7.12
2017-10-07T09:47:02.317Z,6.80
2017-10-07T09:48:04.797Z,5.53
2017-10-07T09:49:07.269Z,3.78
2017-10-07T09:50:09.743Z,2.92
2017-10-07T09:51:12.206Z,8.50
2017-10-07T09:52:14.718Z,3.83
2017-10-07T09:53:17.200Z,4.55
2017-10-07T09:54:20.429Z,5.45
2017-10-07T09:55:23.670Z,4.65
2017-10-07T09:56:26.125Z,2.10
2017-10-07T09:57:28.630Z,7.30
2017-10-07T09:58:31.855Z,3.15
2017-10-07T09:59:34.361Z,3.80
2017-10-07T10:00:36.815Z,4.93
2017-10-07T10:01:40.042Z,7.53
2017-10-07T10:02:42.534Z,6.53
2017-10-07T10:03:44.996Z,1.80
2017-10-07T10:04:47.451Z,2.75
2017-10-07T10:05:49.928Z,5.30
2017-10-07T10:06:52.382Z,2.97
2017-10-07T10:07:55.702Z,4.40
2017-10-07T10:08:58.177Z,5.20
2017-10-07T10:10:01.363Z,9.15
2017-10-07T10:11:03.844Z,6.53
2017-10-07T10:12:06.326Z,7.25
2017-10-07T10:13:08.840Z,2.97
2017-10-07T10:14:11.316Z,3.05
2017-10-07T10:15:13.780Z,4.72
2017-10-07T10:16:16.251Z,3.33
2017-10-07T10:17:19.480Z,4.80
2017-10-07T10:18:21.967Z,7.07
2017-10-07T10:19:24.468Z,2.67
2017-10-07T10:20:26.931Z,5.55
2017-10-07T10:21:29.391Z,4.10
2017-10-07T10:22:32.619Z,4.85
2017-10-07T10:23:35.113Z,4.82
2017-10-07T10:24:37.571Z,4.47
2017-10-07T10:25:40.799Z,5.07
2017-10-07T10:26:43.258Z,4.30
2017-10-07T10:27:46.482Z,3.58
2017-10-07T10:28:49.072Z,4.00
2017-10-07T10:29:51.535Z,5.50
2017-10-07T10:30:54.762Z,6.30
2017-10-07T10:31:57.226Z,6.05
2017-10-07T10:32:59.723Z,3.80
2017-10-07T10:34:03.010Z,3.95
2017-10-07T10:35:05.503Z,4.80
2017-10-07T10:36:08.766Z,4.57
2017-10-07T10:37:11.246Z,10.18
2017-10-07T10:38:13.714Z,5.22
2017-10-07T10:39:16.255Z,3.08
2017-10-07T10:40:18.724Z,5.37
2017-10-07T10:41:21.235Z,4.72
2017-10-07T10:42:24.481Z,5.18
2017-10-07T10:43:26.964Z,4.12
2017-10-07T10:44:29.463Z,2.67
2017-10-07T10:45:32.714Z,5.78
2017-10-07T10:46:35.942Z,4.78
2017-10-07T10:47:39.195Z,2.87
2017-10-07T10:48:42.440Z,5.32
2017-10-07T10:49:45.745Z,2.70
2017-10-07T10:50:48.206Z,4.18
2017-10-07T10:51:51.452Z,3.97
2017-10-07T10:52:54.697Z,3.92
2017-10-07T10:53:57.239Z,3.85
2017-10-07T10:54:59.731Z,4.62
2017-10-07T10:56:02.993Z,4.72
2017-10-07T10:57:05.486Z,3.00
2017-10-07T10:58:07.957Z,3.55
2017-10-07T10:59:10.428Z,2.83
2017-10-07T11:00:12.944Z,4.07
2017-10-07T11:01:16.167Z,7.07
2017-10-07T11:02:18.632Z,8.38
2017-10-07T11:03:21.090Z,2.75
2017-10-07T11:04:23.534Z,6.00
2017-10-07T11:05:26.040Z,3.55
2017-10-07T11:06:28.517Z,10.90
2017-10-07T11:07:30.986Z,4.55
2017-10-07T11:08:33.444Z,4.40
2017-10-07T11:09:35.914Z,9.35
2017-10-07T11:10:39.193Z,4.18
2017-10-07T11:11:41.707Z,7.57
2017-10-07T11:12:44.175Z,3.22
2017-10-07T11:13:46.638Z,7.32
2017-10-07T11:14:49.863Z,7.85
2017-10-07T11:15:52.347Z,9.45
2017-10-07T11:16:54.838Z,9.65
2017-10-07T11:17:57.318Z,5.40
2017-10-07T11:18:59.776Z,5.90
2017-10-07T11:20:02.999Z,4.03
2017-10-07T11:21:05.507Z,6.10
2017-10-07T11:22:07.982Z,5.75
2017-10-07T11:23:10.452Z,4.20
2017-10-07T11:24:12.914Z,6.03
2017-10-07T11:25:16.170Z,9.75
2017-10-07T11:26:18.659Z,6.10
2017-10-07T11:27:21.125Z,5.00
2017-10-07T11:28:23.586Z,8.23
2017-10-07T11:29:26.055Z,12.85
2017-10-07T11:30:29.289Z,8.13
2017-10-07T11:31:31.792Z,5.60
2017-10-07T11:32:34.261Z,8.90
2017-10-07T11:33:37.486Z,7.75
2017-10-07T11:34:40.734Z,5.47
2017-10-07T11:35:43.980Z,6.60
2017-10-07T11:36:47.356Z,8.18
2017-10-07T11:37:49.820Z,7.95
2017-10-07T11:38:52.289Z,3.95
2017-10-07T11:39:54.744Z,9.32
2017-10-07T11:40:57.233Z,3.12
2017-10-07T11:42:00.520Z,12.77
2017-10-07T11:43:03.012Z,6.10
2017-10-07T11:44:05.481Z,5.57
2017-10-07T11:45:07.945Z,11.23
2017-10-07T11:46:11.169Z,9.90
2017-10-07T11:47:13.678Z,6.07
2017-10-07T11:48:16.144Z,4.53
2017-10-07T11:49:18.624Z,8.05
2017-10-07T11:50:21.847Z,5.30
2017-10-07T11:51:24.342Z,6.90
2017-10-07T11:52:26.888Z,7.50
2017-10-07T11:53:29.355Z,3.15
2017-10-07T11:54:31.810Z,7.18
2017-10-07T11:55:34.335Z,10.82
2017-10-07T11:56:36.795Z,9.68
2017-10-07T11:57:39.299Z,6.90
2017-10-07T11:58:41.759Z,6.22
2017-10-07T11:59:44.219Z,5.15
2017-10-07T12:00:47.495Z,4.90
2017-10-07T12:01:49.966Z,5.35
2017-10-07T12:02:52.477Z,6.00
2017-10-07T12:03:54.943Z,3.72
2017-10-07T12:04:58.154Z,9.73
2017-10-07T12:06:00.621Z,8.73
2017-10-07T12:07:03.137Z,9.13
2017-10-07T12:08:06.391Z,5.22
2017-10-07T12:09:08.899Z,7.05
2017-10-07T12:10:12.167Z,6.97
2017-10-07T12:11:14.799Z,4.10
2017-10-07T12:12:17.260Z,7.18
2017-10-07T12:13:19.784Z,7.78
2017-10-07T12:14:22.234Z,7.97
2017-10-07T12:15:24.718Z,6.45
2017-10-07T12:16:27.188Z,11.05
2017-10-07T12:17:29.749Z,11.55
2017-10-07T12:18:32.253Z,6.35
2017-10-07T12:19:35.503Z,5.60
2017-10-07T12:20:38.767Z,4.55
2017-10-07T12:21:41.280Z,4.75
2017-10-07T12:22:43.791Z,10.27
2017-10-07T12:23:47.028Z,7.35
2017-10-07T12:24:50.334Z,7.18
2017-10-07T12:25:52.795Z,8.38
2017-10-07T12:26:56.071Z,6.97
2017-10-07T12:27:58.539Z,5.15
2017-10-07T12:29:01.058Z,14.60
2017-10-07T12:30:03.528Z,8.98
2017-10-07T12:31:06.002Z,5.62
2017-10-07T12:32:08.504Z,8.43
2017-10-07T12:33:10.981Z,7.53
2017-10-07T12:34:14.253Z,5.45
2017-10-07T12:35:16.731Z,6.30
2017-10-07T12:36:19.203Z,5.00
2017-10-07T12:37:21.683Z,10.82
2017-10-07T12:38:24.146Z,10.32
2017-10-07T12:39:26.629Z,14.93
2017-10-07T12:40:29.143Z,6.97
2017-10-07T12:41:31.626Z,11.98
2017-10-07T12:42:34.101Z,5.85
2017-10-07T12:43:36.571Z,10.75
2017-10-07T12:44:39.123Z,6.60
2017-10-07T12:45:41.647Z,7.15
2017-10-07T12:46:44.114Z,13.10
2017-10-07T12:47:46.621Z,7.75
2017-10-07T12:48:49.094Z,9.52
2017-10-07T12:49:52.323Z,9.15
2017-10-07T12:50:55.591Z,13.00
2017-10-07T12:51:58.108Z,9.57
2017-10-07T12:53:00.580Z,12.88
2017-10-07T12:54:03.043Z,14.02
2017-10-07T12:55:06.452Z,9.98
2017-10-07T12:56:09.685Z,15.07
2017-10-07T12:57:12.159Z,9.90
2017-10-07T12:58:15.367Z,8.52
2017-10-07T12:59:17.835Z,11.55
2017-10-07T13:00:20.342Z,11.00
2017-10-07T13:01:23.571Z,9.73
2017-10-07T13:02:26.037Z,10.55
2017-10-07T13:03:28.500Z,13.77
2017-10-07T13:04:30.992Z,9.15
2017-10-07T13:05:33.520Z,13.57
2017-10-07T13:06:35.984Z,8.15
2017-10-07T13:07:38.501Z,9.10
2017-10-07T13:08:40.979Z,9.40
2017-10-07T13:09:43.478Z,6.68
2017-10-07T13:10:45.943Z,8.98
2017-10-07T13:11:48.415Z,11.85
2017-10-07T13:12:50.891Z,8.10
2017-10-07T13:13:53.407Z,10.50
2017-10-07T13:14:55.882Z,8.50
2017-10-07T13:15:58.352Z,7.10
2017-10-07T13:17:00.846Z,6.20
2017-10-07T13:18:03.304Z,10.13
2017-10-07T13:19:05.779Z,8.48
2017-10-07T13:20:08.256Z,8.05
2017-10-07T13:21:10.717Z,10.32
2017-10-07T13:22:13.226Z,7.97
2017-10-07T13:23:15.727Z,11.60
2017-10-07T13:24:18.214Z,6.47
2017-10-07T13:25:20.683Z,6.87
2017-10-07T13:26:23.151Z,12.80
2017-10-07T13:27:27.216Z,7.43
2017-10-07T13:28:29.693Z,7.82
2017-10-07T13:29:32.167Z,5.40
2017-10-07T13:30:34.638Z,6.10
2017-10-07T13:31:37.118Z,7.07
2017-10-07T13:32:39.598Z,10.32
2017-10-07T13:33:42.064Z,7.53
2017-10-07T13:34:44.529Z,12.13
2017-10-07T13:35:47.755Z,9.20
2017-10-07T13:36:51.004Z,7.03
2017-10-07T13:37:54.244Z,8.60
2017-10-07T13:38:57.554Z,9.30